Caliente, Nevada Weather observations

Data are for observation ending at time listed.
 Day   Time    Ave.   Ave.  Ave.  Vector   Max.   Stn.    Total    Solar   Ave.  
  of    of     Air    Rel.  Wind   Wind    Wind   Baro.  Precip.   Rad.    Soil  
Year   Day     Temp.  Hum.  Speed  Dir.    Gust   Pres.                    Temp. 
2017   (PST)    F      %     mph   deg.    mph     mb.     in.     W/m2     F   
------------------------------------------------------------------------------
  35   21:00   36.0    79    0.0    84      1.2   868.5    0.00       0    42.7
  35   21:10   36.0    80    0.5    47      3.7   868.4    0.00       0    42.8
  35   21:20   35.7    79    0.4   107      1.5   868.4    0.00       0    42.9
  35   21:30   35.2    80    0.1   241      0.7   868.4    0.00       0    42.6
  35   21:40   34.7    81    0.1   250      0.9   868.5    0.00       0    42.6
  35   21:50   34.3    82    0.5   134      1.8   868.6    0.00       1    42.1
  35   22:00   34.6    83    0.5   150      1.2   868.6    0.00       0    42.2
  35   22:10   34.5    82    0.1   308      0.9   868.6    0.00       0    42.1
  35   22:20   34.2    82    0.1    71      1.5   868.8    0.00       0    42.0
  35   22:30   34.1    83    0.6   109      3.2   868.9    0.00       0    41.9
  35   22:40   34.0    83    0.0   298      0.7   869.0    0.00       0    41.6
  35   22:50   33.7    83    0.2    66      2.4   869.0    0.00       0    41.7
  35   23:00   33.4    84    0.0     0      0.0   869.1    0.00       0    41.8
  35   23:10   33.2    84    0.0     0      0.0   869.1    0.00       0    41.5
  35   23:20   32.9    84    0.0     0      0.0   869.1    0.00       0    41.5
  35   23:30   33.1    85    1.0    44      4.8   869.3    0.00       0    41.3
  35   23:40   33.1    84    0.0   111      0.8   869.3    0.00       0    41.4
  35   23:50   33.1    84    0.7    77      1.5   869.3    0.00       0    41.0
  36    0:00   32.9    84    0.0     0      0.0   869.2    0.00       0    41.2
  36    0:10   32.8    84    0.0     0      0.0   869.1    0.00       0    41.0
  36    0:20   32.5    85    0.3   128      1.3   869.1    0.00       0    40.7
  36    0:30   32.4    85    1.3   116      2.1   869.1    0.00       0    40.9
  36    0:40   32.7    85    0.7   149      1.5   869.0    0.00       0    40.7
  36    0:50   32.8    85    0.5   342      1.8   868.9    0.00       0    40.6
  36    1:00   32.5    85    0.0   123      0.7   868.8    0.00       0    40.6
  36    1:10   32.3    85    0.4   120      1.1   868.8    0.00       0    40.5
  36    1:20   32.1    86    1.0   136      1.7   868.9    0.00       0    40.5
  36    1:30   32.1    86    0.9   136      2.3   868.9    0.00       0    40.4
  36    1:40   32.2    86    0.8    17      2.2   869.0    0.00       0    40.2
  36    1:50   32.2    86    0.3    56      1.8   869.1    0.00       0    39.9
  36    2:00   32.0    86    0.9   125      1.5   869.2    0.00       1    40.1
  36    2:10   31.7    87    0.9   128      1.6   869.1    0.00       0    40.2
  36    2:20   31.3    87    0.7    58      2.4   869.1    0.00       0    40.0
  36    2:30   31.0    87    0.6   101      1.5   869.1    0.00       0    39.9
  36    2:40   31.0    87    0.0   139      0.6   869.1    0.00       0    39.7
  36    2:50   30.6    88    0.7   111      1.8   869.1    0.00       0    39.7
  36    3:00   30.5    88    0.7   133      1.9   869.0    0.00       0    39.7
  36    3:10   30.2    88    0.0     0      0.0   868.9    0.00       0    39.3
  36    3:20   29.8    88    0.2   152      1.0   868.9    0.00       0    39.4
  36    3:30   29.5    89    0.2   177      0.9   868.8    0.00       0    39.1
  36    3:40   29.2    89    0.2    48      1.5   868.7    0.00       0    39.2
  36    3:50   28.9    89    0.3    54      2.0   868.7    0.00       0    39.2
  36    4:00   28.9    89    0.4   106      1.4   868.5    0.00       0    38.9
  36    4:10   28.8    90    0.4    97      1.3   868.5    0.00       0    38.9
  36    4:20   29.0    90    0.6    98      2.1   868.5    0.00       0    38.8
  36    4:30   29.1    90    0.1   146      1.2   868.5    0.00       0    38.9
  36    4:40   28.5    90    0.1    96      1.0   868.5    0.00       0    38.6
  36    4:50   28.3    90    0.2    60      1.3   868.4    0.00       0    38.3
  36    5:00   28.2    90    0.0   128      0.9   868.3    0.00       0    38.5
  36    5:10   27.9    90    1.0   153      1.7   868.4    0.00       0    38.2
  36    5:20   27.9    91    0.1    60      1.1   868.5    0.00       0    38.2
  36    5:30   27.7    91    0.6    34      1.6   868.6    0.00       0    38.2
  36    5:40   27.6    91    0.0     0      0.0   868.7    0.00       0    38.0
  36    5:50   27.3    90    0.1    78      1.2   868.6    0.00       0    37.9
  36    6:00   27.0    90    0.2    95      1.0   868.6    0.00       0    37.8
  36    6:10   27.0    90    0.4    53      2.0   868.7    0.00       0    37.7
  36    6:20   27.0    90    1.2    42      2.2   868.7    0.00       0    37.7
  36    6:30   26.9    90    0.2   138      1.5   868.8    0.00       0    37.3
  36    6:40   26.7    90    0.7   128      1.6   868.9    0.00       1    37.4
  36    6:50   26.7    91    0.3   143      1.2   869.0    0.00       4    37.4
  36    7:00   26.8    91    0.2   148      0.8   869.2    0.00       8    37.3
  36    7:10   26.7    90    0.0    43      0.4   869.3    0.00      12    37.2
  36    7:20   26.7    90    0.2    99      1.0   869.4    0.00      15    37.2
  36    7:30   26.9    90    0.1   110      0.9   869.4    0.00      24    37.0
  36    7:40   27.0    90    0.7   124      1.3   869.4    0.00      81    37.0
  36    7:50   28.9    89    0.4   100      1.5   869.4    0.00     126    36.9
  36    8:00   29.7    86    0.4   110      1.1   869.6    0.00      92    36.8
  36    8:10   30.4    86    0.7   112      2.1   869.7    0.00     149    37.0
  36    8:20   31.1    85    0.9    81      2.6   869.7    0.00     135    36.8
  36    8:30   31.8    84    1.5    25      2.9   869.6    0.00     108    37.0
  36    8:40   32.1    83    1.1     4      2.9   869.5    0.00     111    37.0
  36    8:50   32.7    82    0.5    40      1.9   869.3    0.00     122    37.1
  36    9:00   33.3    82    1.2     9      2.8   869.3    0.00     122    37.1
  36    9:10   34.0    81    0.8    37      2.1   869.2    0.00     135    37.1
  36    9:20   34.5    81    1.6    21      4.5   869.3    0.00     148    37.3
  36    9:30   35.2    81    1.4    25      4.0   869.3    0.00     178    37.4
  36    9:40   35.9    80    1.8   359      4.3   869.2    0.00     181    37.5
  36    9:50   36.9    78    1.1    26      2.9   869.2    0.00     188    37.6
  36   10:00   37.4    76    0.8    29      3.0   869.2    0.00     228    37.8
  36   10:10   38.4    74    0.9   358      2.5   869.3    0.00     297    37.9
  36   10:20   39.3    72    1.0    48      3.4   869.2    0.00     254    38.1
  36   10:30   39.9    71    1.0   184      2.9   869.3    0.00     228    38.2
  36   10:40   41.1    69    0.4   214      1.8   869.2    0.00     233    38.3
  36   10:50   41.5    68    0.9   156      3.0   869.2    0.00     290    38.3
  36   11:00   42.5    66    1.2   354      4.3   868.9    0.00     316    38.7
  36   11:10   42.9    65    1.6    38      3.4   868.7    0.00     352    38.8
  36   11:20   44.4    63    0.8    54      3.7   868.6    0.00     426    38.9
  36   11:30   45.3    61    1.3    26      4.5   868.3    0.00     491    39.1
  36   11:40   46.1    60    1.6    84      4.5   867.9    0.00     502    39.2
  36   11:50   47.3    58    1.3    56      4.7   867.6    0.00     485    39.4
  36   12:00   49.1    56    1.9     9      6.7   867.3    0.00     462    39.7
  36   12:10   49.5    55    0.9    92      3.1   867.0    0.00     422    39.8
  36   12:20   49.9    54    0.8   264      2.9   866.6    0.00     442    40.1
  36   12:30   50.0    54    1.4   266      3.4   866.3    0.00     435    40.3
  36   12:40   50.1    54    1.9   256      4.6   866.0    0.00     459    40.4
  36   12:50   51.1    52    1.4   226      3.1   865.8    0.00     409    40.5
  36   13:00   51.9    50    1.2   203      3.0   865.5    0.00     340    40.7
  36   13:10   52.3    50    1.5   260      4.8   865.2    0.00     347    40.9
  36   13:20   53.0    49    1.1   265      2.6   865.0    0.00     278    41.1
  36   13:30   53.6    48    1.0    20      5.0   864.7    0.00     237    41.3
  36   13:40   54.1    45    2.7   251     10.7   864.5    0.00     224    41.6
  36   13:50   53.7    43    5.8   246     11.9   864.4    0.00     167    41.7
  36   14:00   53.4    42    6.9   247     13.6   864.1    0.00     131    42.0
  36   14:10   52.9    43    6.6   249     11.0   864.0    0.00     151    42.2
  36   14:20   52.8    43    6.6   248     10.7   863.9    0.00     160    42.4
  36   14:30   52.8    43    6.1   248      9.3   863.8    0.00     166    42.7
  36   14:40   52.9    44    5.0   247      8.1   863.8    0.00     144    42.9
  36   14:50   52.8    44    6.4   248     10.4   863.8    0.00     138    43.1
  36   15:00   52.7    44    5.9   247      9.9   863.6    0.00     140    43.2
  36   15:10   52.8    44    5.1   246      8.8   863.6    0.00     129    43.5
  36   15:20   52.8    42    5.4   249     12.4   863.6    0.00     108    43.5
  36   15:30   52.9    42    2.3   242      5.8   863.6    0.00     121    43.6
  36   15:40   52.8    42    3.3   246     11.9   863.7    0.00      80    43.8
  36   15:50   52.3    43    4.8   247      8.9   863.7    0.00      89    43.9
  36   16:00   52.1    43    2.7   240     10.4   863.8    0.00      66    44.0
  36   16:10   51.9    44    2.1   246      5.4   863.8    0.00      53    44.2
  36   16:20   51.7    44    2.7   201      8.3   863.8    0.00      43    44.3
  36   16:30   51.4    45    1.6   177      6.6   863.9    0.00      36    44.3
  36   16:40   51.1    47    1.5   230      4.4   863.8    0.00      26    44.4
  36   16:50   50.8    49    0.7   226      2.9   863.9    0.00      17    44.4
  36   17:00   50.3    50    0.2   210      2.2   863.9    0.00       8    44.3
  36   17:10   49.7    52    0.1   117      1.0   863.8    0.00       3    44.4
  36   17:20   49.0    54    0.2   258      2.0   863.7    0.00       3    44.5
  36   17:30   48.3    56    0.2   121      2.6   863.8    0.00       0    44.2
  36   17:40   48.0    57    0.5   253      1.6   863.9    0.00       0    44.3
  36   17:50   47.3    58    0.5   150      3.0   863.8    0.00       0    44.4
  36   18:00   47.5    56    2.1   248      5.6   863.8    0.00       0    44.3
  36   18:10   48.3    54    1.6   237      3.9   863.8    0.00       0    44.1
  36   18:20   47.9    55    1.1   242      2.4   863.9    0.00       0    44.2
  36   18:30   47.4    56    0.1   233      1.4   863.9    0.00       0    44.1
  36   18:40   46.6    58    0.5   205      2.0   863.8    0.00       0    44.1
  36   18:50   46.6    57    0.3    58      1.5   863.7    0.00       0    44.2
  36   19:00   46.2    57    0.6   131      1.7   863.6    0.00       0    44.1
  36   19:10   46.3    57    0.2   110      1.8   863.6    0.00       0    43.9
  36   19:20   46.1    58    0.4   101      1.2   863.6    0.00       0    44.0
  36   19:30   45.5    59    0.2   251      2.2   863.6    0.00       0    44.0
  36   19:40   44.9    61    0.1   236      1.1   863.6    0.00       0    44.1
  36   19:50   44.6    62    0.3   123      2.0   863.5    0.00       0    43.7
  36   20:00   44.6    63    0.7   340      2.7   863.3    0.00       0    43.8
  36   20:10   44.8    62    2.1    32      4.0   863.3    0.00       0    43.8
  36   20:20   44.5    62    0.6    97      2.9   863.3    0.00       0    43.7
  36   20:30   44.0    63    0.4    60      2.2   863.4    0.00       0    43.8
  36   20:40   43.6    64    0.3    17      1.4   863.3    0.00       0    43.7
  36   20:50   43.6    65    0.2   298      1.4   863.3    0.00       0    43.5

Return to Caliente, Nevada graphs page.


Western Regional Climate Center,wrcc@dri.edu